createdAt,value
2022-08-31T00:00:18.735Z,19.93
2022-08-31T00:03:10.100Z,20.00
2022-08-31T00:05:46.025Z,20.02
2022-08-31T00:08:22.049Z,20.01
2022-08-31T00:10:57.547Z,19.98
2022-08-31T00:13:32.476Z,20.06
2022-08-31T00:16:08.459Z,19.93
2022-08-31T00:18:43.038Z,19.94
2022-08-31T00:21:19.178Z,20.02
2022-08-31T00:23:54.090Z,19.95
2022-08-31T00:26:28.913Z,19.88
2022-08-31T00:29:04.300Z,19.75
2022-08-31T00:31:39.107Z,19.70
2022-08-31T00:34:13.792Z,19.70
2022-08-31T00:36:49.802Z,19.70
2022-08-31T00:39:24.393Z,19.81
2022-08-31T00:41:59.717Z,19.86
2022-08-31T00:44:34.585Z,19.89
2022-08-31T00:47:10.644Z,19.83
2022-08-31T00:49:50.278Z,19.77
2022-08-31T00:52:33.222Z,19.69
2022-08-31T00:55:17.202Z,19.74
2022-08-31T00:57:55.503Z,19.70
2022-08-31T01:00:32.445Z,19.68
2022-08-31T01:03:09.147Z,19.60
2022-08-31T01:05:43.715Z,19.58
2022-08-31T01:08:21.576Z,19.55
2022-08-31T01:11:04.620Z,19.61
2022-08-31T01:13:40.268Z,19.54
2022-08-31T01:16:21.763Z,19.59
2022-08-31T01:18:59.800Z,19.64
2022-08-31T01:21:44.658Z,19.72
2022-08-31T01:24:22.857Z,19.66
2022-08-31T01:26:58.951Z,19.54
2022-08-31T01:29:34.662Z,19.62
2022-08-31T01:32:10.814Z,19.57
2022-08-31T01:34:45.437Z,19.55
2022-08-31T01:37:20.019Z,19.52
2022-08-31T01:40:05.983Z,19.52
2022-08-31T01:42:40.645Z,19.49
2022-08-31T01:45:15.635Z,19.50
2022-08-31T01:47:50.186Z,19.48
2022-08-31T01:50:24.968Z,19.51
2022-08-31T01:53:01.925Z,19.53
2022-08-31T01:55:37.863Z,19.56
2022-08-31T01:58:12.463Z,19.53
2022-08-31T02:00:48.522Z,19.54
2022-08-31T02:03:23.069Z,19.59
2022-08-31T02:08:31.912Z,19.73
2022-08-31T02:11:09.124Z,19.68
2022-08-31T02:13:43.910Z,19.67
2022-08-31T02:16:18.460Z,19.57
2022-08-31T02:18:53.741Z,19.52
2022-08-31T02:21:28.904Z,19.56
2022-08-31T02:24:03.417Z,19.56
2022-08-31T02:26:39.213Z,19.60
2022-08-31T02:29:13.993Z,19.66
2022-08-31T02:31:48.617Z,19.69
2022-08-31T02:34:23.236Z,19.71
2022-08-31T02:36:58.248Z,19.71
2022-08-31T02:39:34.367Z,19.71
2022-08-31T02:42:10.334Z,19.73
2022-08-31T02:44:45.008Z,19.77
2022-08-31T02:47:20.200Z,19.76
2022-08-31T02:49:55.189Z,19.73
2022-08-31T02:52:29.788Z,19.72
2022-08-31T02:55:04.354Z,19.73
2022-08-31T02:57:41.549Z,19.72
2022-08-31T03:00:16.817Z,19.70
2022-08-31T03:02:52.510Z,19.74
2022-08-31T03:05:27.604Z,19.74
2022-08-31T03:08:02.225Z,19.71
2022-08-31T03:10:36.911Z,19.72
2022-08-31T03:13:13.146Z,19.72
2022-08-31T03:15:49.802Z,19.75
2022-08-31T03:18:24.747Z,19.74
2022-08-31T03:20:59.423Z,19.75
2022-08-31T03:23:34.459Z,19.76
2022-08-31T03:26:09.670Z,19.73
2022-08-31T03:28:45.510Z,19.75
2022-08-31T03:31:20.872Z,19.68
2022-08-31T03:33:55.756Z,19.65
2022-08-31T03:36:30.680Z,19.66
2022-08-31T03:39:05.279Z,19.65
2022-08-31T03:41:40.130Z,19.60
2022-08-31T03:44:16.282Z,19.58
2022-08-31T03:46:51.225Z,19.59
2022-08-31T03:49:26.999Z,19.58
2022-08-31T03:52:03.081Z,19.55
2022-08-31T03:54:38.023Z,19.59
2022-08-31T03:57:12.828Z,19.58
2022-08-31T03:59:48.744Z,19.59
2022-08-31T04:02:24.415Z,19.60
2022-08-31T04:04:59.122Z,19.59
2022-08-31T04:07:42.073Z,19.61
2022-08-31T04:10:18.118Z,19.64
2022-08-31T04:12:53.179Z,19.62
2022-08-31T04:15:29.377Z,19.56
2022-08-31T04:18:04.033Z,19.57
2022-08-31T04:20:40.531Z,19.56
2022-08-31T04:23:14.911Z,19.57
2022-08-31T04:25:49.301Z,19.54
2022-08-31T04:28:23.972Z,19.53
2022-08-31T04:31:01.150Z,19.50
2022-08-31T04:33:35.849Z,19.44
2022-08-31T04:36:13.896Z,19.43
2022-08-31T04:38:50.929Z,19.42
2022-08-31T04:41:28.908Z,19.36
2022-08-31T04:44:04.898Z,19.34
2022-08-31T04:46:42.020Z,19.29
2022-08-31T04:49:16.835Z,19.22
2022-08-31T04:51:51.959Z,19.23
2022-08-31T04:54:26.772Z,19.20
2022-08-31T04:57:01.497Z,19.19
2022-08-31T04:59:36.084Z,19.21
2022-08-31T05:02:11.686Z,19.21
2022-08-31T05:04:46.481Z,19.21
2022-08-31T05:07:20.925Z,19.21
2022-08-31T05:09:55.555Z,19.23
2022-08-31T05:12:29.896Z,19.23
2022-08-31T05:15:04.607Z,19.30
2022-08-31T05:17:40.752Z,19.24
2022-08-31T05:20:15.398Z,19.23
2022-08-31T05:22:50.061Z,19.20
2022-08-31T05:25:24.738Z,19.20
2022-08-31T05:27:59.511Z,19.22
2022-08-31T05:30:33.926Z,19.24
2022-08-31T05:33:10.041Z,19.16
2022-08-31T05:35:45.525Z,19.08
2022-08-31T05:38:20.320Z,19.06
2022-08-31T05:40:56.281Z,19.12
2022-08-31T05:43:31.727Z,19.15
2022-08-31T05:46:10.400Z,19.18
2022-08-31T05:48:49.142Z,19.17
2022-08-31T05:51:24.947Z,19.16
2022-08-31T05:54:01.988Z,19.14
2022-08-31T05:56:37.394Z,19.13
2022-08-31T05:59:12.775Z,19.19
2022-08-31T06:01:47.860Z,19.17
2022-08-31T06:04:23.946Z,19.19
2022-08-31T06:06:58.940Z,19.19
2022-08-31T06:09:34.042Z,19.17
2022-08-31T06:12:10.734Z,19.21
2022-08-31T06:14:54.624Z,19.24
2022-08-31T06:17:29.314Z,19.24
2022-08-31T06:20:08.442Z,19.15
2022-08-31T06:22:48.325Z,19.09
2022-08-31T06:25:25.012Z,19.13
2022-08-31T06:28:00.150Z,19.16
2022-08-31T06:30:47.791Z,19.13
2022-08-31T06:33:29.535Z,19.20
2022-08-31T06:36:06.054Z,19.30
2022-08-31T06:38:41.438Z,19.38
2022-08-31T06:41:18.124Z,19.41
2022-08-31T06:43:53.234Z,19.42
2022-08-31T06:46:29.577Z,19.48
2022-08-31T06:49:04.935Z,19.57
2022-08-31T06:51:45.825Z,19.60
2022-08-31T06:54:29.347Z,19.62
2022-08-31T06:57:05.420Z,19.69
2022-08-31T06:59:40.104Z,19.74
2022-08-31T07:02:14.997Z,19.76
2022-08-31T07:04:49.809Z,19.87
2022-08-31T07:07:26.029Z,19.92
2022-08-31T07:10:00.810Z,19.97
2022-08-31T07:12:35.268Z,20.02
2022-08-31T07:15:10.634Z,20.06
2022-08-31T07:17:46.121Z,20.15
2022-08-31T07:20:20.774Z,20.17
2022-08-31T07:22:57.083Z,20.20
2022-08-31T07:25:31.774Z,20.32
2022-08-31T07:28:06.301Z,20.29
2022-08-31T07:30:42.594Z,20.35
2022-08-31T07:33:17.350Z,20.54
2022-08-31T07:35:52.092Z,20.47
2022-08-31T07:38:45.081Z,20.49
2022-08-31T07:41:37.135Z,20.58
2022-08-31T07:44:13.270Z,20.62
2022-08-31T07:46:49.659Z,20.68
2022-08-31T07:49:24.583Z,20.66
2022-08-31T07:52:00.335Z,20.69
2022-08-31T07:54:36.632Z,20.72
2022-08-31T07:57:11.366Z,20.74
2022-08-31T07:59:47.527Z,20.89
2022-08-31T08:02:24.044Z,20.75
2022-08-31T08:05:00.914Z,20.76
2022-08-31T08:07:34.661Z,20.81
2022-08-31T08:10:14.021Z,20.89
2022-08-31T08:12:57.904Z,20.87
2022-08-31T08:15:35.780Z,20.98
2022-08-31T08:18:10.868Z,21.11
2022-08-31T08:20:44.084Z,21.01
2022-08-31T08:23:26.838Z,21.13
2022-08-31T08:26:09.517Z,21.12
2022-08-31T08:28:43.920Z,21.21
2022-08-31T08:31:22.978Z,21.22
2022-08-31T08:33:56.593Z,21.19
2022-08-31T08:36:35.758Z,21.25
2022-08-31T08:39:13.021Z,21.27
2022-08-31T08:41:49.186Z,21.39
2022-08-31T08:44:24.455Z,21.39
2022-08-31T08:47:00.678Z,21.39
2022-08-31T08:49:42.578Z,21.34
2022-08-31T08:52:24.719Z,21.42
2022-08-31T08:55:03.158Z,21.49
2022-08-31T08:57:42.504Z,21.50
2022-08-31T09:00:20.016Z,21.45
2022-08-31T09:02:58.396Z,21.46
2022-08-31T09:06:00.428Z,21.66
2022-08-31T09:09:08.784Z,21.58
2022-08-31T09:11:56.143Z,21.57
2022-08-31T09:14:48.950Z,21.58
2022-08-31T09:17:41.871Z,21.66
2022-08-31T09:20:16.550Z,21.61
2022-08-31T09:22:52.793Z,21.80
2022-08-31T09:25:33.061Z,21.82
2022-08-31T09:28:13.483Z,21.90
2022-08-31T09:30:53.270Z,22.17
2022-08-31T09:33:30.067Z,22.20
2022-08-31T09:36:19.080Z,22.01
2022-08-31T09:38:52.327Z,22.01
2022-08-31T09:41:36.499Z,22.11
2022-08-31T09:44:35.058Z,22.12
2022-08-31T09:47:48.480Z,22.05
2022-08-31T09:50:33.317Z,22.22
2022-08-31T09:53:39.595Z,22.23
2022-08-31T09:56:17.090Z,22.33
2022-08-31T09:58:53.945Z,22.55
2022-08-31T10:01:35.245Z,22.45
2022-08-31T10:04:23.400Z,22.60
2022-08-31T10:07:14.075Z,22.59
2022-08-31T10:09:49.667Z,22.60
2022-08-31T10:12:43.417Z,22.63
2022-08-31T10:15:23.342Z,22.71
2022-08-31T10:18:04.045Z,22.87
2022-08-31T10:20:45.537Z,23.04
2022-08-31T10:23:27.127Z,23.03
2022-08-31T10:26:07.259Z,23.19
2022-08-31T10:28:50.880Z,23.34
2022-08-31T10:31:31.602Z,23.35
2022-08-31T10:34:27.900Z,23.41
2022-08-31T10:37:09.988Z,23.58
2022-08-31T10:39:48.317Z,23.66
2022-08-31T10:42:30.024Z,23.82
2022-08-31T10:45:17.767Z,23.75
2022-08-31T10:47:55.470Z,23.79
2022-08-31T10:50:40.321Z,23.82
2022-08-31T10:53:27.188Z,23.71
2022-08-31T10:56:14.211Z,23.83
2022-08-31T10:59:12.306Z,23.97
2022-08-31T11:01:57.063Z,23.87
2022-08-31T11:05:01.073Z,24.10
2022-08-31T11:07:46.698Z,24.10
2022-08-31T11:10:31.337Z,24.17
2022-08-31T11:13:15.093Z,24.41
2022-08-31T11:16:13.734Z,24.66
2022-08-31T11:19:10.452Z,24.91
2022-08-31T11:22:16.390Z,25.09
2022-08-31T11:25:34.650Z,25.01
2022-08-31T11:28:13.738Z,24.89
2022-08-31T11:30:51.041Z,24.68
2022-08-31T11:33:29.047Z,24.67
2022-08-31T11:36:08.818Z,24.60
2022-08-31T11:38:52.193Z,24.82
2022-08-31T11:41:43.078Z,24.92
2022-08-31T11:45:06.966Z,24.66
2022-08-31T11:47:44.213Z,24.55
2022-08-31T11:51:00.213Z,24.63
2022-08-31T11:53:44.370Z,24.70
2022-08-31T11:56:37.598Z,24.72
2022-08-31T11:59:26.296Z,24.40
2022-08-31T12:02:22.978Z,24.61
2022-08-31T12:05:02.716Z,24.61
2022-08-31T12:07:43.482Z,24.46
2022-08-31T12:10:35.162Z,24.32
2022-08-31T12:13:24.107Z,24.60
2022-08-31T12:16:19.175Z,24.80
2022-08-31T12:19:35.217Z,25.00
2022-08-31T12:22:48.591Z,24.83
2022-08-31T12:25:34.541Z,24.82
2022-08-31T12:28:18.261Z,24.98
2022-08-31T12:31:07.329Z,25.08
2022-08-31T12:33:55.855Z,25.23
2022-08-31T12:36:32.289Z,25.21
2022-08-31T12:39:10.323Z,25.26
2022-08-31T12:41:50.339Z,25.32
2022-08-31T12:44:25.642Z,25.14
2022-08-31T12:47:06.030Z,24.99
2022-08-31T12:50:07.665Z,25.24
2022-08-31T12:52:59.238Z,24.92
2022-08-31T12:55:43.798Z,25.07
2022-08-31T12:58:39.185Z,25.02
2022-08-31T13:01:15.454Z,24.86
2022-08-31T13:03:54.309Z,24.82
2022-08-31T13:06:30.881Z,24.85
2022-08-31T13:09:06.040Z,24.77
2022-08-31T13:11:43.805Z,24.89
2022-08-31T13:14:22.984Z,24.83
2022-08-31T13:17:01.811Z,24.90
2022-08-31T13:19:37.096Z,24.65
2022-08-31T13:22:17.226Z,24.62
2022-08-31T13:24:54.021Z,24.58
2022-08-31T13:27:31.631Z,24.99
2022-08-31T13:30:18.460Z,24.99
2022-08-31T13:32:54.806Z,25.21
2022-08-31T13:35:37.034Z,25.42
2022-08-31T13:38:11.905Z,25.17
2022-08-31T13:40:53.219Z,25.11
2022-08-31T13:43:37.363Z,25.07
2022-08-31T13:46:11.311Z,25.01
2022-08-31T13:48:53.874Z,24.79
2022-08-31T13:51:34.055Z,24.87
2022-08-31T13:54:14.991Z,24.72
2022-08-31T13:56:58.891Z,24.64
2022-08-31T13:59:37.743Z,24.69
2022-08-31T14:02:37.201Z,24.68
2022-08-31T14:05:12.879Z,24.73
2022-08-31T14:08:03.852Z,24.61
2022-08-31T14:10:42.105Z,24.73
2022-08-31T14:13:20.899Z,24.83
2022-08-31T14:15:58.132Z,25.08
2022-08-31T14:18:40.174Z,25.28
2022-08-31T14:21:21.772Z,25.45
2022-08-31T14:24:00.468Z,25.32
2022-08-31T14:26:36.867Z,25.28
2022-08-31T14:29:13.088Z,25.26
2022-08-31T14:31:52.266Z,25.08
2022-08-31T14:34:29.729Z,24.97
2022-08-31T14:37:07.389Z,24.87
2022-08-31T14:39:45.596Z,24.82
2022-08-31T14:42:21.687Z,24.62
2022-08-31T14:45:03.100Z,24.57
2022-08-31T14:47:43.953Z,24.47
2022-08-31T14:50:23.568Z,24.42
2022-08-31T14:52:57.495Z,24.49
2022-08-31T14:55:30.923Z,24.52
2022-08-31T14:58:11.258Z,24.57
2022-08-31T15:00:53.166Z,24.56
2022-08-31T15:03:31.041Z,24.55
2022-08-31T15:06:05.164Z,24.53
2022-08-31T15:08:39.008Z,24.47
2022-08-31T15:11:12.238Z,24.38
2022-08-31T15:13:45.828Z,24.45
2022-08-31T15:16:18.941Z,24.38
2022-08-31T15:18:54.353Z,24.19
2022-08-31T15:21:28.079Z,24.09
2022-08-31T15:24:01.187Z,24.02
2022-08-31T15:26:34.268Z,23.98
2022-08-31T15:29:07.341Z,23.98
2022-08-31T15:31:49.509Z,24.00
2022-08-31T15:34:27.386Z,24.03
2022-08-31T15:37:03.823Z,24.09
2022-08-31T15:39:43.346Z,24.29
2022-08-31T15:42:21.114Z,24.48
2022-08-31T15:44:56.967Z,24.49
2022-08-31T15:47:50.379Z,24.76
2022-08-31T15:50:31.757Z,24.86
2022-08-31T15:53:11.994Z,24.87
2022-08-31T15:55:45.516Z,24.77
2022-08-31T15:58:24.478Z,24.76
2022-08-31T16:00:58.336Z,24.60
2022-08-31T16:03:34.942Z,24.63
2022-08-31T16:06:11.282Z,24.64
2022-08-31T16:08:44.522Z,24.52
2022-08-31T16:11:17.971Z,24.43
2022-08-31T16:13:54.349Z,24.39
2022-08-31T16:16:30.999Z,24.29
2022-08-31T16:19:08.282Z,24.17
2022-08-31T16:21:45.925Z,24.07
2022-08-31T16:24:22.421Z,24.01
2022-08-31T16:26:57.638Z,23.98
2022-08-31T16:29:31.112Z,23.95
2022-08-31T16:32:06.700Z,23.89
2022-08-31T16:34:42.680Z,23.83
2022-08-31T16:37:17.272Z,23.85
2022-08-31T16:39:50.446Z,23.97
2022-08-31T16:42:23.585Z,23.89
2022-08-31T16:45:01.788Z,23.72
2022-08-31T16:47:35.414Z,23.69
2022-08-31T16:50:08.966Z,23.65
2022-08-31T16:52:44.631Z,23.68
2022-08-31T16:55:17.936Z,23.70
2022-08-31T16:57:51.061Z,23.54
2022-08-31T17:00:28.376Z,23.37
2022-08-31T17:03:06.419Z,23.24
2022-08-31T17:05:41.045Z,23.12
2022-08-31T17:08:15.636Z,23.04
2022-08-31T17:10:50.744Z,22.98
2022-08-31T17:13:23.955Z,22.94
2022-08-31T17:15:57.145Z,22.86
2022-08-31T17:18:30.369Z,22.76
2022-08-31T17:21:03.535Z,22.65
2022-08-31T17:23:40.052Z,22.56
2022-08-31T17:26:13.203Z,22.47
2022-08-31T17:28:54.919Z,22.38
2022-08-31T17:31:28.866Z,22.34
2022-08-31T17:34:02.349Z,22.28
2022-08-31T17:36:37.684Z,22.18
2022-08-31T17:39:13.650Z,22.11
2022-08-31T17:41:48.863Z,22.14
2022-08-31T17:44:26.461Z,22.12
2022-08-31T17:47:03.808Z,22.09
2022-08-31T17:49:40.385Z,21.99
2022-08-31T17:52:16.754Z,21.97
2022-08-31T17:54:52.385Z,21.98
2022-08-31T17:57:25.901Z,21.96
2022-08-31T17:59:59.076Z,21.92
2022-08-31T18:02:34.752Z,21.87
2022-08-31T18:05:11.726Z,21.86
2022-08-31T18:07:46.799Z,21.77
2022-08-31T18:10:21.810Z,21.67
2022-08-31T18:12:54.987Z,21.57
2022-08-31T18:15:28.846Z,21.52
2022-08-31T18:18:02.341Z,21.44
2022-08-31T18:20:39.399Z,21.38
2022-08-31T18:23:16.493Z,21.29
2022-08-31T18:25:51.047Z,21.22
2022-08-31T18:28:24.226Z,21.12
2022-08-31T18:30:57.408Z,21.04
2022-08-31T18:33:31.138Z,20.93
2022-08-31T18:36:09.640Z,20.81
2022-08-31T18:38:42.865Z,20.74
2022-08-31T18:41:41.255Z,20.64
2022-08-31T18:44:33.382Z,20.60
2022-08-31T18:47:12.400Z,20.53
2022-08-31T18:49:46.811Z,20.50
2022-08-31T18:52:23.063Z,20.40
2022-08-31T18:54:59.395Z,20.36
2022-08-31T18:57:36.422Z,20.27
2022-08-31T19:00:22.982Z,20.16
2022-08-31T19:02:56.455Z,20.14
2022-08-31T19:05:31.992Z,20.10
2022-08-31T19:08:05.901Z,20.08
2022-08-31T19:10:42.195Z,19.98
2022-08-31T19:13:16.783Z,19.87
2022-08-31T19:15:50.386Z,19.79
2022-08-31T19:18:23.861Z,19.74
2022-08-31T19:20:57.172Z,19.62
2022-08-31T19:23:30.578Z,19.55
2022-08-31T19:26:03.942Z,19.48
2022-08-31T19:28:38.501Z,19.42
2022-08-31T19:31:12.089Z,19.32
2022-08-31T19:33:46.169Z,19.25
2022-08-31T19:36:20.404Z,19.13
2022-08-31T19:39:06.176Z,19.12
2022-08-31T19:44:55.777Z,19.10
2022-08-31T19:47:48.376Z,19.07
2022-08-31T19:50:22.141Z,19.03
2022-08-31T19:52:55.369Z,18.99
2022-08-31T19:55:28.539Z,18.99
2022-08-31T19:58:02.250Z,18.92
2022-08-31T20:00:38.779Z,18.89
2022-08-31T20:03:13.463Z,18.89
2022-08-31T20:05:46.573Z,18.99
2022-08-31T20:08:19.929Z,18.90
2022-08-31T20:10:53.438Z,18.91
2022-08-31T20:13:28.453Z,18.95
2022-08-31T20:16:04.748Z,18.94
2022-08-31T20:18:38.627Z,18.90
2022-08-31T20:21:16.793Z,18.87
2022-08-31T20:23:53.449Z,18.80
2022-08-31T20:26:36.210Z,18.68
2022-08-31T20:29:13.695Z,18.62
2022-08-31T20:31:50.707Z,18.57
2022-08-31T20:34:28.051Z,18.54
2022-08-31T20:37:01.640Z,18.48
2022-08-31T20:39:35.473Z,18.31
2022-08-31T20:42:08.979Z,18.23
2022-08-31T20:44:43.558Z,18.16
2022-08-31T20:47:41.123Z,18.12
2022-08-31T20:50:14.951Z,17.92
2022-08-31T20:52:48.153Z,17.99
2022-08-31T20:55:22.574Z,17.94
2022-08-31T20:57:55.650Z,17.95
2022-08-31T21:00:29.731Z,17.94
2022-08-31T21:03:04.229Z,17.98
2022-08-31T21:05:38.979Z,17.91
2022-08-31T21:08:13.923Z,17.83
2022-08-31T21:10:46.955Z,17.74
2022-08-31T21:13:20.193Z,17.73
2022-08-31T21:15:54.087Z,17.65
2022-08-31T21:18:29.237Z,17.68
2022-08-31T21:21:07.363Z,17.63
2022-08-31T21:23:40.508Z,17.61
2022-08-31T21:26:20.903Z,17.52
2022-08-31T21:28:57.952Z,17.55
2022-08-31T21:31:31.192Z,17.59
2022-08-31T21:34:06.290Z,17.59
2022-08-31T21:36:40.043Z,17.63
2022-08-31T21:39:16.277Z,17.60
2022-08-31T21:41:50.438Z,17.58
2022-08-31T21:44:24.412Z,17.61
2022-08-31T21:46:57.993Z,17.54
2022-08-31T21:49:34.004Z,17.53
2022-08-31T21:52:07.110Z,17.50
2022-08-31T21:54:40.979Z,17.43
2022-08-31T21:57:16.119Z,17.45
2022-08-31T21:59:50.191Z,17.25
2022-08-31T22:02:23.388Z,17.09
2022-08-31T22:04:57.861Z,17.02
2022-08-31T22:07:31.553Z,16.91
2022-08-31T22:10:06.833Z,16.84
2022-08-31T22:12:39.956Z,16.79
2022-08-31T22:15:16.707Z,16.75
2022-08-31T22:18:11.400Z,16.72
2022-08-31T22:20:45.179Z,16.77
2022-08-31T22:23:18.252Z,16.78
2022-08-31T22:25:51.726Z,16.76
2022-08-31T22:28:27.679Z,16.77
2022-08-31T22:31:02.947Z,16.71
2022-08-31T22:33:36.444Z,16.66
2022-08-31T22:36:31.809Z,16.76
2022-08-31T22:39:09.061Z,16.73
2022-08-31T22:41:43.233Z,16.74
2022-08-31T22:44:19.467Z,16.78
2022-08-31T22:46:52.789Z,16.78
2022-08-31T22:49:27.107Z,16.70
2022-08-31T22:52:01.597Z,16.65
2022-08-31T22:54:35.580Z,16.61
2022-08-31T22:57:08.687Z,16.57
2022-08-31T22:59:42.333Z,16.57
2022-08-31T23:02:17.246Z,16.61
2022-08-31T23:04:50.377Z,16.53
2022-08-31T23:07:25.165Z,16.54
2022-08-31T23:09:58.961Z,16.59
2022-08-31T23:12:31.994Z,16.56
2022-08-31T23:15:06.307Z,16.55
2022-08-31T23:17:44.542Z,16.47
2022-08-31T23:20:24.156Z,16.44
2022-08-31T23:23:01.043Z,16.46
2022-08-31T23:25:35.331Z,16.43
2022-08-31T23:28:08.646Z,16.44
2022-08-31T23:30:44.716Z,16.43
2022-08-31T23:33:19.916Z,16.42
2022-08-31T23:35:55.773Z,16.39
2022-08-31T23:38:32.474Z,16.39
2022-08-31T23:41:05.622Z,16.34
2022-08-31T23:43:43.735Z,16.24
2022-08-31T23:46:16.860Z,16.23
2022-08-31T23:48:50.090Z,16.23
2022-08-31T23:51:25.612Z,16.19
2022-08-31T23:54:00.443Z,16.16
2022-08-31T23:56:33.849Z,16.11
2022-08-31T23:59:13.224Z,16.12
